sensor_id;sensor_type;location;lat;lon;timestamp;P1;durP1;ratioP1;P2;durP2;ratioP2
23310;SDS011;11828;51.508;18.118;2023-04-25T00:00:24;227.75;;;77.22;;
23310;SDS011;11828;51.508;18.118;2023-04-25T00:03:10;227.23;;;74.65;;
23310;SDS011;11828;51.508;18.118;2023-04-25T00:05:37;231.10;;;75.18;;
23310;SDS011;11828;51.508;18.118;2023-04-25T00:08:04;226.50;;;76.57;;
23310;SDS011;11828;51.508;18.118;2023-04-25T00:10:30;225.18;;;74.95;;
23310;SDS011;11828;51.508;18.118;2023-04-25T00:12:56;224.20;;;76.32;;
23310;SDS011;11828;51.508;18.118;2023-04-25T00:15:24;223.43;;;75.05;;
23310;SDS011;11828;51.508;18.118;2023-04-25T00:17:50;221.18;;;74.72;;
23310;SDS011;11828;51.508;18.118;2023-04-25T00:20:18;221.68;;;74.35;;
23310;SDS011;11828;51.508;18.118;2023-04-25T00:22:44;227.48;;;78.40;;
23310;SDS011;11828;51.508;18.118;2023-04-25T00:25:11;223.30;;;77.65;;
23310;SDS011;11828;51.508;18.118;2023-04-25T00:27:37;222.02;;;75.38;;
23310;SDS011;11828;51.508;18.118;2023-04-25T00:30:04;226.90;;;74.80;;
23310;SDS011;11828;51.508;18.118;2023-04-25T00:32:31;232.98;;;76.65;;
23310;SDS011;11828;51.508;18.118;2023-04-25T00:34:57;231.50;;;76.65;;
23310;SDS011;11828;51.508;18.118;2023-04-25T00:37:24;273.80;;;82.03;;
23310;SDS011;11828;51.508;18.118;2023-04-25T00:39:50;238.85;;;77.53;;
23310;SDS011;11828;51.508;18.118;2023-04-25T00:42:18;223.73;;;74.72;;
23310;SDS011;11828;51.508;18.118;2023-04-25T00:44:45;222.70;;;75.82;;
23310;SDS011;11828;51.508;18.118;2023-04-25T00:47:12;229.05;;;76.97;;
23310;SDS011;11828;51.508;18.118;2023-04-25T00:49:39;220.38;;;74.03;;
23310;SDS011;11828;51.508;18.118;2023-04-25T00:52:05;221.95;;;75.00;;
23310;SDS011;11828;51.508;18.118;2023-04-25T00:54:31;219.45;;;73.63;;
23310;SDS011;11828;51.508;18.118;2023-04-25T00:56:57;220.45;;;74.47;;
23310;SDS011;11828;51.508;18.118;2023-04-25T00:59:26;221.98;;;75.03;;
23310;SDS011;11828;51.508;18.118;2023-04-25T01:01:53;226.02;;;76.47;;
23310;SDS011;11828;51.508;18.118;2023-04-25T01:04:20;219.27;;;75.20;;
23310;SDS011;11828;51.508;18.118;2023-04-25T01:06:47;219.93;;;74.57;;
23310;SDS011;11828;51.508;18.118;2023-04-25T01:09:14;220.20;;;75.75;;
23310;SDS011;11828;51.508;18.118;2023-04-25T01:11:40;223.10;;;75.43;;
23310;SDS011;11828;51.508;18.118;2023-04-25T01:14:06;221.48;;;76.28;;
23310;SDS011;11828;51.508;18.118;2023-04-25T01:16:32;222.38;;;75.55;;
23310;SDS011;11828;51.508;18.118;2023-04-25T01:18:59;228.75;;;77.28;;
23310;SDS011;11828;51.508;18.118;2023-04-25T01:21:25;219.65;;;75.60;;
23310;SDS011;11828;51.508;18.118;2023-04-25T01:23:53;63.55;;;24.55;;
23310;SDS011;11828;51.508;18.118;2023-04-25T01:26:20;55.63;;;27.67;;
23310;SDS011;11828;51.508;18.118;2023-04-25T01:28:47;67.75;;;24.58;;
23310;SDS011;11828;51.508;18.118;2023-04-25T01:31:14;11.02;;;3.75;;
23310;SDS011;11828;51.508;18.118;2023-04-25T01:33:44;11.65;;;3.30;;
23310;SDS011;11828;51.508;18.118;2023-04-25T01:36:10;57.50;;;16.67;;
23310;SDS011;11828;51.508;18.118;2023-04-25T01:38:37;22.95;;;6.88;;
23310;SDS011;11828;51.508;18.118;2023-04-25T01:41:03;72.95;;;26.00;;
23310;SDS011;11828;51.508;18.118;2023-04-25T01:43:31;13.57;;;5.07;;
23310;SDS011;11828;51.508;18.118;2023-04-25T01:45:57;42.17;;;12.18;;
23310;SDS011;11828;51.508;18.118;2023-04-25T01:48:23;43.05;;;22.58;;
23310;SDS011;11828;51.508;18.118;2023-04-25T01:50:49;75.82;;;26.00;;
23310;SDS011;11828;51.508;18.118;2023-04-25T01:53:16;56.95;;;19.10;;
23310;SDS011;11828;51.508;18.118;2023-04-25T01:55:42;44.22;;;14.48;;
23310;SDS011;11828;51.508;18.118;2023-04-25T01:58:09;8.77;;;2.97;;
23310;SDS011;11828;51.508;18.118;2023-04-25T02:00:37;9.57;;;3.28;;
23310;SDS011;11828;51.508;18.118;2023-04-25T02:03:04;16.83;;;3.63;;
23310;SDS011;11828;51.508;18.118;2023-04-25T02:05:37;10.30;;;3.17;;
23310;SDS011;11828;51.508;18.118;2023-04-25T02:08:05;7.75;;;2.60;;
23310;SDS011;11828;51.508;18.118;2023-04-25T02:10:33;6.95;;;3.08;;
23310;SDS011;11828;51.508;18.118;2023-04-25T02:13:00;9.52;;;2.90;;
23310;SDS011;11828;51.508;18.118;2023-04-25T02:15:26;10.23;;;3.10;;
23310;SDS011;11828;51.508;18.118;2023-04-25T02:17:53;13.63;;;3.38;;
23310;SDS011;11828;51.508;18.118;2023-04-25T02:20:20;7.70;;;2.90;;
23310;SDS011;11828;51.508;18.118;2023-04-25T02:22:48;14.13;;;3.63;;
23310;SDS011;11828;51.508;18.118;2023-04-25T02:25:14;24.70;;;8.05;;
23310;SDS011;11828;51.508;18.118;2023-04-25T02:27:42;11.05;;;3.25;;
23310;SDS011;11828;51.508;18.118;2023-04-25T02:30:08;22.08;;;6.82;;
23310;SDS011;11828;51.508;18.118;2023-04-25T02:32:35;129.43;;;45.70;;
23310;SDS011;11828;51.508;18.118;2023-04-25T02:35:01;27.05;;;9.07;;
23310;SDS011;11828;51.508;18.118;2023-04-25T02:37:31;83.70;;;32.00;;
23310;SDS011;11828;51.508;18.118;2023-04-25T02:39:58;169.60;;;61.95;;
23310;SDS011;11828;51.508;18.118;2023-04-25T02:42:25;170.95;;;63.17;;
23310;SDS011;11828;51.508;18.118;2023-04-25T02:44:52;187.32;;;71.22;;
23310;SDS011;11828;51.508;18.118;2023-04-25T02:47:18;98.13;;;39.20;;
23310;SDS011;11828;51.508;18.118;2023-04-25T02:49:45;155.55;;;52.50;;
23310;SDS011;11828;51.508;18.118;2023-04-25T02:52:11;217.63;;;77.18;;
23310;SDS011;11828;51.508;18.118;2023-04-25T02:54:39;109.07;;;36.55;;
23310;SDS011;11828;51.508;18.118;2023-04-25T02:57:06;22.63;;;7.00;;
23310;SDS011;11828;51.508;18.118;2023-04-25T02:59:32;130.38;;;43.83;;
23310;SDS011;11828;51.508;18.118;2023-04-25T03:01:59;176.27;;;58.90;;
23310;SDS011;11828;51.508;18.118;2023-04-25T03:04:25;225.90;;;74.78;;
23310;SDS011;11828;51.508;18.118;2023-04-25T03:06:51;148.20;;;48.17;;
23310;SDS011;11828;51.508;18.118;2023-04-25T03:09:18;220.50;;;74.63;;
23310;SDS011;11828;51.508;18.118;2023-04-25T03:11:45;221.05;;;75.60;;
23310;SDS011;11828;51.508;18.118;2023-04-25T03:14:12;220.35;;;76.00;;
23310;SDS011;11828;51.508;18.118;2023-04-25T03:16:39;218.43;;;73.18;;
23310;SDS011;11828;51.508;18.118;2023-04-25T03:19:05;116.72;;;39.95;;
23310;SDS011;11828;51.508;18.118;2023-04-25T03:21:32;84.85;;;31.23;;
23310;SDS011;11828;51.508;18.118;2023-04-25T03:24:00;75.30;;;29.83;;
23310;SDS011;11828;51.508;18.118;2023-04-25T03:26:29;99.03;;;33.88;;
23310;SDS011;11828;51.508;18.118;2023-04-25T03:28:55;203.43;;;69.07;;
23310;SDS011;11828;51.508;18.118;2023-04-25T03:31:21;236.60;;;78.55;;
23310;SDS011;11828;51.508;18.118;2023-04-25T03:33:47;170.27;;;56.33;;
23310;SDS011;11828;51.508;18.118;2023-04-25T03:36:14;163.45;;;57.60;;
23310;SDS011;11828;51.508;18.118;2023-04-25T03:38:40;11.07;;;3.45;;
23310;SDS011;11828;51.508;18.118;2023-04-25T03:41:09;219.13;;;74.97;;
23310;SDS011;11828;51.508;18.118;2023-04-25T03:43:35;7.05;;;3.42;;
23310;SDS011;11828;51.508;18.118;2023-04-25T03:46:01;15.50;;;6.15;;
23310;SDS011;11828;51.508;18.118;2023-04-25T03:48:27;98.32;;;33.08;;
23310;SDS011;11828;51.508;18.118;2023-04-25T03:50:54;219.93;;;73.85;;
23310;SDS011;11828;51.508;18.118;2023-04-25T03:53:20;221.95;;;73.50;;
23310;SDS011;11828;51.508;18.118;2023-04-25T03:55:47;222.23;;;75.00;;
23310;SDS011;11828;51.508;18.118;2023-04-25T03:58:13;222.82;;;74.32;;
23310;SDS011;11828;51.508;18.118;2023-04-25T04:00:39;220.65;;;75.78;;
23310;SDS011;11828;51.508;18.118;2023-04-25T04:03:05;225.13;;;75.13;;
23310;SDS011;11828;51.508;18.118;2023-04-25T04:05:32;223.02;;;75.60;;
23310;SDS011;11828;51.508;18.118;2023-04-25T04:07:58;217.30;;;75.53;;
23310;SDS011;11828;51.508;18.118;2023-04-25T04:10:24;226.15;;;75.93;;
23310;SDS011;11828;51.508;18.118;2023-04-25T04:12:51;222.98;;;76.60;;
23310;SDS011;11828;51.508;18.118;2023-04-25T04:15:17;221.93;;;77.05;;
23310;SDS011;11828;51.508;18.118;2023-04-25T04:17:43;221.05;;;75.93;;
23310;SDS011;11828;51.508;18.118;2023-04-25T04:20:10;219.63;;;75.38;;
23310;SDS011;11828;51.508;18.118;2023-04-25T04:22:36;232.85;;;78.60;;
23310;SDS011;11828;51.508;18.118;2023-04-25T04:25:02;215.90;;;75.72;;
23310;SDS011;11828;51.508;18.118;2023-04-25T04:27:29;214.85;;;74.82;;
23310;SDS011;11828;51.508;18.118;2023-04-25T04:29:56;216.38;;;76.50;;
23310;SDS011;11828;51.508;18.118;2023-04-25T04:32:22;218.30;;;74.78;;
23310;SDS011;11828;51.508;18.118;2023-04-25T04:34:50;216.52;;;76.78;;
23310;SDS011;11828;51.508;18.118;2023-04-25T04:37:17;220.52;;;75.22;;
23310;SDS011;11828;51.508;18.118;2023-04-25T04:39:44;234.02;;;77.18;;
23310;SDS011;11828;51.508;18.118;2023-04-25T04:42:11;220.20;;;75.88;;
23310;SDS011;11828;51.508;18.118;2023-04-25T04:44:37;220.32;;;77.80;;
23310;SDS011;11828;51.508;18.118;2023-04-25T04:47:04;215.35;;;75.32;;
23310;SDS011;11828;51.508;18.118;2023-04-25T04:49:32;211.52;;;77.68;;
23310;SDS011;11828;51.508;18.118;2023-04-25T04:51:58;213.63;;;77.05;;
23310;SDS011;11828;51.508;18.118;2023-04-25T04:54:25;219.60;;;76.97;;
23310;SDS011;11828;51.508;18.118;2023-04-25T04:56:52;220.02;;;77.55;;
23310;SDS011;11828;51.508;18.118;2023-04-25T04:59:19;218.10;;;76.25;;
23310;SDS011;11828;51.508;18.118;2023-04-25T05:01:46;211.38;;;77.95;;
23310;SDS011;11828;51.508;18.118;2023-04-25T05:04:12;213.23;;;77.97;;
23310;SDS011;11828;51.508;18.118;2023-04-25T05:06:39;201.38;;;78.32;;
23310;SDS011;11828;51.508;18.118;2023-04-25T05:09:05;195.43;;;77.60;;
23310;SDS011;11828;51.508;18.118;2023-04-25T05:11:32;194.35;;;78.55;;
23310;SDS011;11828;51.508;18.118;2023-04-25T05:13:58;203.80;;;78.63;;
23310;SDS011;11828;51.508;18.118;2023-04-25T05:16:24;199.98;;;76.93;;
23310;SDS011;11828;51.508;18.118;2023-04-25T05:18:51;194.88;;;78.70;;
23310;SDS011;11828;51.508;18.118;2023-04-25T05:21:17;193.25;;;77.43;;
23310;SDS011;11828;51.508;18.118;2023-04-25T05:23:43;185.68;;;76.68;;
23310;SDS011;11828;51.508;18.118;2023-04-25T05:26:09;188.00;;;77.53;;
23310;SDS011;11828;51.508;18.118;2023-04-25T05:28:39;206.23;;;79.13;;
23310;SDS011;11828;51.508;18.118;2023-04-25T05:31:06;193.05;;;77.70;;
23310;SDS011;11828;51.508;18.118;2023-04-25T05:33:35;199.63;;;79.45;;
23310;SDS011;11828;51.508;18.118;2023-04-25T05:36:01;201.50;;;78.18;;
23310;SDS011;11828;51.508;18.118;2023-04-25T05:38:28;195.60;;;76.75;;
23310;SDS011;11828;51.508;18.118;2023-04-25T05:40:54;204.43;;;78.10;;
23310;SDS011;11828;51.508;18.118;2023-04-25T05:43:21;191.68;;;77.22;;
23310;SDS011;11828;51.508;18.118;2023-04-25T05:45:47;191.07;;;78.72;;
23310;SDS011;11828;51.508;18.118;2023-04-25T05:48:13;186.25;;;75.93;;
23310;SDS011;11828;51.508;18.118;2023-04-25T05:50:39;186.57;;;75.05;;
23310;SDS011;11828;51.508;18.118;2023-04-25T05:53:05;222.70;;;81.45;;
23310;SDS011;11828;51.508;18.118;2023-04-25T05:55:31;179.57;;;78.03;;
23310;SDS011;11828;51.508;18.118;2023-04-25T05:57:58;177.13;;;78.20;;
23310;SDS011;11828;51.508;18.118;2023-04-25T06:00:24;168.27;;;76.93;;
23310;SDS011;11828;51.508;18.118;2023-04-25T06:02:50;155.35;;;73.18;;
23310;SDS011;11828;51.508;18.118;2023-04-25T06:05:16;161.85;;;74.07;;
23310;SDS011;11828;51.508;18.118;2023-04-25T06:07:42;153.88;;;73.82;;
23310;SDS011;11828;51.508;18.118;2023-04-25T06:10:09;147.65;;;72.90;;
23310;SDS011;11828;51.508;18.118;2023-04-25T06:12:36;148.32;;;72.00;;
23310;SDS011;11828;51.508;18.118;2023-04-25T06:15:03;144.57;;;73.50;;
23310;SDS011;11828;51.508;18.118;2023-04-25T06:17:31;137.43;;;70.85;;
23310;SDS011;11828;51.508;18.118;2023-04-25T06:19:58;132.60;;;69.80;;
23310;SDS011;11828;51.508;18.118;2023-04-25T06:22:24;118.22;;;65.43;;
23310;SDS011;11828;51.508;18.118;2023-04-25T06:24:50;119.88;;;65.43;;
23310;SDS011;11828;51.508;18.118;2023-04-25T06:27:16;96.70;;;62.55;;
23310;SDS011;11828;51.508;18.118;2023-04-25T06:29:42;90.30;;;60.30;;
23310;SDS011;11828;51.508;18.118;2023-04-25T06:32:09;91.07;;;58.78;;
23310;SDS011;11828;51.508;18.118;2023-04-25T06:34:35;58.63;;;49.13;;
23310;SDS011;11828;51.508;18.118;2023-04-25T06:37:01;65.90;;;47.92;;
23310;SDS011;11828;51.508;18.118;2023-04-25T06:39:27;54.67;;;40.17;;
23310;SDS011;11828;51.508;18.118;2023-04-25T06:41:53;38.22;;;29.50;;
23310;SDS011;11828;51.508;18.118;2023-04-25T06:44:19;25.63;;;23.23;;
23310;SDS011;11828;51.508;18.118;2023-04-25T06:46:48;20.70;;;18.55;;
23310;SDS011;11828;51.508;18.118;2023-04-25T06:49:14;16.50;;;9.15;;
23310;SDS011;11828;51.508;18.118;2023-04-25T06:51:41;13.80;;;6.43;;
23310;SDS011;11828;51.508;18.118;2023-04-25T06:54:06;13.70;;;4.45;;
23310;SDS011;11828;51.508;18.118;2023-04-25T06:56:33;18.08;;;4.25;;
23310;SDS011;11828;51.508;18.118;2023-04-25T06:58:59;35.60;;;5.80;;
23310;SDS011;11828;51.508;18.118;2023-04-25T07:01:26;16.30;;;3.95;;
23310;SDS011;11828;51.508;18.118;2023-04-25T07:03:52;15.35;;;3.58;;
23310;SDS011;11828;51.508;18.118;2023-04-25T07:06:18;14.40;;;3.35;;
23310;SDS011;11828;51.508;18.118;2023-04-25T07:08:44;9.05;;;2.90;;
23310;SDS011;11828;51.508;18.118;2023-04-25T07:11:10;15.75;;;4.00;;
23310;SDS011;11828;51.508;18.118;2023-04-25T07:13:36;13.73;;;3.38;;
23310;SDS011;11828;51.508;18.118;2023-04-25T07:16:03;17.60;;;3.70;;
23310;SDS011;11828;51.508;18.118;2023-04-25T07:18:30;14.68;;;3.80;;
23310;SDS011;11828;51.508;18.118;2023-04-25T07:20:56;11.05;;;3.13;;
23310;SDS011;11828;51.508;18.118;2023-04-25T07:23:22;11.10;;;3.08;;
23310;SDS011;11828;51.508;18.118;2023-04-25T07:25:48;17.92;;;3.70;;
23310;SDS011;11828;51.508;18.118;2023-04-25T07:28:14;14.73;;;3.92;;
23310;SDS011;11828;51.508;18.118;2023-04-25T07:30:40;12.80;;;3.50;;
23310;SDS011;11828;51.508;18.118;2023-04-25T07:33:06;18.40;;;3.75;;
23310;SDS011;11828;51.508;18.118;2023-04-25T07:35:33;7.82;;;2.20;;
23310;SDS011;11828;51.508;18.118;2023-04-25T07:37:59;16.48;;;3.60;;
23310;SDS011;11828;51.508;18.118;2023-04-25T07:40:25;10.30;;;3.15;;
23310;SDS011;11828;51.508;18.118;2023-04-25T07:42:51;13.45;;;3.28;;
23310;SDS011;11828;51.508;18.118;2023-04-25T07:45:17;38.45;;;5.43;;
23310;SDS011;11828;51.508;18.118;2023-04-25T07:47:43;10.85;;;2.90;;
23310;SDS011;11828;51.508;18.118;2023-04-25T07:50:10;32.20;;;5.43;;
23310;SDS011;11828;51.508;18.118;2023-04-25T07:52:36;8.90;;;2.83;;
23310;SDS011;11828;51.508;18.118;2023-04-25T07:55:03;26.25;;;4.85;;
23310;SDS011;11828;51.508;18.118;2023-04-25T07:57:29;19.00;;;4.22;;
23310;SDS011;11828;51.508;18.118;2023-04-25T07:59:56;12.50;;;3.30;;
23310;SDS011;11828;51.508;18.118;2023-04-25T08:02:22;29.20;;;4.80;;
23310;SDS011;11828;51.508;18.118;2023-04-25T08:04:48;11.93;;;3.65;;
23310;SDS011;11828;51.508;18.118;2023-04-25T08:07:15;19.60;;;4.45;;
23310;SDS011;11828;51.508;18.118;2023-04-25T08:09:41;15.68;;;3.70;;
23310;SDS011;11828;51.508;18.118;2023-04-25T08:12:07;58.42;;;8.00;;
23310;SDS011;11828;51.508;18.118;2023-04-25T08:14:34;21.48;;;4.18;;
23310;SDS011;11828;51.508;18.118;2023-04-25T08:17:04;13.70;;;3.17;;
23310;SDS011;11828;51.508;18.118;2023-04-25T08:19:31;20.23;;;4.07;;
23310;SDS011;11828;51.508;18.118;2023-04-25T08:21:57;27.67;;;4.78;;
23310;SDS011;11828;51.508;18.118;2023-04-25T08:24:23;11.82;;;3.25;;
23310;SDS011;11828;51.508;18.118;2023-04-25T08:26:51;20.75;;;3.55;;
23310;SDS011;11828;51.508;18.118;2023-04-25T08:29:17;21.63;;;3.80;;
23310;SDS011;11828;51.508;18.118;2023-04-25T08:31:43;17.10;;;3.25;;
23310;SDS011;11828;51.508;18.118;2023-04-25T08:34:09;11.23;;;3.30;;
23310;SDS011;11828;51.508;18.118;2023-04-25T08:36:36;10.75;;;2.90;;
23310;SDS011;11828;51.508;18.118;2023-04-25T08:39:02;14.43;;;3.67;;
23310;SDS011;11828;51.508;18.118;2023-04-25T08:41:28;17.52;;;3.47;;
23310;SDS011;11828;51.508;18.118;2023-04-25T08:43:55;28.90;;;4.93;;
23310;SDS011;11828;51.508;18.118;2023-04-25T08:46:25;23.30;;;4.07;;
23310;SDS011;11828;51.508;18.118;2023-04-25T08:48:51;25.38;;;4.25;;
23310;SDS011;11828;51.508;18.118;2023-04-25T08:51:24;15.80;;;3.50;;
23310;SDS011;11828;51.508;18.118;2023-04-25T08:53:53;10.95;;;2.90;;
23310;SDS011;11828;51.508;18.118;2023-04-25T08:56:19;17.38;;;3.85;;
23310;SDS011;11828;51.508;18.118;2023-04-25T08:58:48;8.10;;;2.70;;
23310;SDS011;11828;51.508;18.118;2023-04-25T09:01:15;27.63;;;4.10;;
23310;SDS011;11828;51.508;18.118;2023-04-25T09:03:44;14.55;;;3.58;;
23310;SDS011;11828;51.508;18.118;2023-04-25T09:06:12;23.77;;;8.80;;
23310;SDS011;11828;51.508;18.118;2023-04-25T09:08:39;17.50;;;4.95;;
23310;SDS011;11828;51.508;18.118;2023-04-25T09:11:06;10.38;;;4.18;;
23310;SDS011;11828;51.508;18.118;2023-04-25T09:13:33;17.25;;;4.47;;
23310;SDS011;11828;51.508;18.118;2023-04-25T09:15:59;12.88;;;3.25;;
23310;SDS011;11828;51.508;18.118;2023-04-25T09:18:26;7.15;;;2.60;;
23310;SDS011;11828;51.508;18.118;2023-04-25T09:21:10;10.23;;;2.83;;
23310;SDS011;11828;51.508;18.118;2023-04-25T09:23:45;13.40;;;3.30;;
23310;SDS011;11828;51.508;18.118;2023-04-25T09:26:17;8.50;;;2.50;;
23310;SDS011;11828;51.508;18.118;2023-04-25T09:28:46;12.23;;;2.72;;
23310;SDS011;11828;51.508;18.118;2023-04-25T09:31:21;9.95;;;2.88;;
23310;SDS011;11828;51.508;18.118;2023-04-25T09:33:49;21.58;;;3.85;;
23310;SDS011;11828;51.508;18.118;2023-04-25T09:36:25;11.48;;;3.95;;
23310;SDS011;11828;51.508;18.118;2023-04-25T09:38:53;25.50;;;4.97;;
23310;SDS011;11828;51.508;18.118;2023-04-25T09:41:23;19.88;;;4.93;;
23310;SDS011;11828;51.508;18.118;2023-04-25T09:43:50;14.77;;;6.25;;
23310;SDS011;11828;51.508;18.118;2023-04-25T09:46:16;11.40;;;7.10;;
23310;SDS011;11828;51.508;18.118;2023-04-25T09:48:49;41.65;;;22.48;;
23310;SDS011;11828;51.508;18.118;2023-04-25T09:51:16;27.27;;;22.75;;
23310;SDS011;11828;51.508;18.118;2023-04-25T09:53:44;26.92;;;22.00;;
23310;SDS011;11828;51.508;18.118;2023-04-25T09:56:12;24.45;;;19.00;;
23310;SDS011;11828;51.508;18.118;2023-04-25T09:58:39;24.25;;;10.52;;
23310;SDS011;11828;51.508;18.118;2023-04-25T10:01:07;10.18;;;8.10;;
23310;SDS011;11828;51.508;18.118;2023-04-25T10:03:38;17.35;;;8.20;;
23310;SDS011;11828;51.508;18.118;2023-04-25T10:06:09;17.52;;;10.60;;
23310;SDS011;11828;51.508;18.118;2023-04-25T10:08:39;16.35;;;10.95;;
23310;SDS011;11828;51.508;18.118;2023-04-25T10:11:08;18.10;;;13.38;;
23310;SDS011;11828;51.508;18.118;2023-04-25T10:13:35;21.13;;;15.60;;
23310;SDS011;11828;51.508;18.118;2023-04-25T10:16:02;23.02;;;11.27;;
23310;SDS011;11828;51.508;18.118;2023-04-25T10:18:30;17.08;;;10.20;;
23310;SDS011;11828;51.508;18.118;2023-04-25T10:20:58;25.65;;;23.05;;
23310;SDS011;11828;51.508;18.118;2023-04-25T10:23:26;22.38;;;20.13;;
23310;SDS011;11828;51.508;18.118;2023-04-25T10:25:54;39.30;;;33.80;;
23310;SDS011;11828;51.508;18.118;2023-04-25T10:28:21;36.10;;;32.63;;
23310;SDS011;11828;51.508;18.118;2023-04-25T10:31:03;30.75;;;27.13;;
23310;SDS011;11828;51.508;18.118;2023-04-25T10:33:33;14.55;;;11.20;;
23310;SDS011;11828;51.508;18.118;2023-04-25T10:38:49;18.00;;;8.73;;
23310;SDS011;11828;51.508;18.118;2023-04-25T10:41:20;15.45;;;4.78;;
23310;SDS011;11828;51.508;18.118;2023-04-25T10:43:49;18.75;;;5.13;;
23310;SDS011;11828;51.508;18.118;2023-04-25T10:46:28;15.82;;;4.65;;
23310;SDS011;11828;51.508;18.118;2023-04-25T10:48:58;15.88;;;4.90;;
23310;SDS011;11828;51.508;18.118;2023-04-25T10:51:27;18.33;;;9.75;;
23310;SDS011;11828;51.508;18.118;2023-04-25T10:53:58;16.60;;;9.32;;
23310;SDS011;11828;51.508;18.118;2023-04-25T10:56:31;17.25;;;12.63;;
23310;SDS011;11828;51.508;18.118;2023-04-25T10:59:10;18.98;;;16.75;;
23310;SDS011;11828;51.508;18.118;2023-04-25T11:01:42;17.50;;;14.07;;
23310;SDS011;11828;51.508;18.118;2023-04-25T11:04:20;21.88;;;15.48;;
23310;SDS011;11828;51.508;18.118;2023-04-25T11:10:01;15.05;;;13.55;;
23310;SDS011;11828;51.508;18.118;2023-04-25T11:12:30;18.17;;;10.60;;
23310;SDS011;11828;51.508;18.118;2023-04-25T11:14:58;16.63;;;9.38;;
23310;SDS011;11828;51.508;18.118;2023-04-25T11:17:32;17.85;;;9.13;;
23310;SDS011;11828;51.508;18.118;2023-04-25T11:19:59;19.63;;;10.30;;
23310;SDS011;11828;51.508;18.118;2023-04-25T11:22:26;17.73;;;12.82;;
23310;SDS011;11828;51.508;18.118;2023-04-25T11:24:53;21.42;;;16.17;;
23310;SDS011;11828;51.508;18.118;2023-04-25T11:27:19;31.42;;;28.42;;
23310;SDS011;11828;51.508;18.118;2023-04-25T11:29:46;42.65;;;34.40;;
23310;SDS011;11828;51.508;18.118;2023-04-25T11:32:14;39.63;;;35.85;;
23310;SDS011;11828;51.508;18.118;2023-04-25T11:34:43;59.53;;;49.25;;
23310;SDS011;11828;51.508;18.118;2023-04-25T11:37:12;57.47;;;51.03;;
23310;SDS011;11828;51.508;18.118;2023-04-25T11:39:43;85.80;;;56.65;;
23310;SDS011;11828;51.508;18.118;2023-04-25T11:42:11;77.32;;;58.00;;
23310;SDS011;11828;51.508;18.118;2023-04-25T11:44:40;84.43;;;60.67;;
23310;SDS011;11828;51.508;18.118;2023-04-25T11:47:06;92.35;;;60.83;;
23310;SDS011;11828;51.508;18.118;2023-04-25T11:49:32;95.53;;;61.78;;
23310;SDS011;11828;51.508;18.118;2023-04-25T11:52:00;115.15;;;69.65;;
23310;SDS011;11828;51.508;18.118;2023-04-25T11:54:26;127.43;;;71.55;;
23310;SDS011;11828;51.508;18.118;2023-04-25T11:56:52;132.77;;;73.82;;
23310;SDS011;11828;51.508;18.118;2023-04-25T11:59:22;146.43;;;75.90;;
23310;SDS011;11828;51.508;18.118;2023-04-25T12:01:50;134.73;;;72.15;;
23310;SDS011;11828;51.508;18.118;2023-04-25T12:04:20;154.80;;;77.45;;
23310;SDS011;11828;51.508;18.118;2023-04-25T12:06:50;158.43;;;76.43;;
23310;SDS011;11828;51.508;18.118;2023-04-25T12:09:20;152.25;;;76.40;;
23310;SDS011;11828;51.508;18.118;2023-04-25T12:11:57;149.63;;;75.90;;
23310;SDS011;11828;51.508;18.118;2023-04-25T12:14:30;146.82;;;74.85;;
23310;SDS011;11828;51.508;18.118;2023-04-25T12:16:58;147.95;;;76.40;;
23310;SDS011;11828;51.508;18.118;2023-04-25T12:19:34;144.35;;;74.47;;
23310;SDS011;11828;51.508;18.118;2023-04-25T12:22:02;135.00;;;72.93;;
23310;SDS011;11828;51.508;18.118;2023-04-25T12:24:34;132.13;;;72.90;;
23310;SDS011;11828;51.508;18.118;2023-04-25T12:27:01;121.55;;;70.07;;
23310;SDS011;11828;51.508;18.118;2023-04-25T12:29:31;126.30;;;72.28;;
23310;SDS011;11828;51.508;18.118;2023-04-25T12:31:58;148.45;;;75.25;;
23310;SDS011;11828;51.508;18.118;2023-04-25T12:34:27;110.50;;;66.10;;
23310;SDS011;11828;51.508;18.118;2023-04-25T12:36:53;101.93;;;63.05;;
23310;SDS011;11828;51.508;18.118;2023-04-25T12:39:21;97.13;;;60.67;;
23310;SDS011;11828;51.508;18.118;2023-04-25T12:41:49;70.75;;;54.08;;
23310;SDS011;11828;51.508;18.118;2023-04-25T12:44:17;72.80;;;57.53;;
23310;SDS011;11828;51.508;18.118;2023-04-25T12:46:43;64.18;;;54.95;;
23310;SDS011;11828;51.508;18.118;2023-04-25T12:49:10;86.05;;;57.45;;
23310;SDS011;11828;51.508;18.118;2023-04-25T12:51:37;60.13;;;50.75;;
23310;SDS011;11828;51.508;18.118;2023-04-25T12:54:04;61.72;;;52.47;;
23310;SDS011;11828;51.508;18.118;2023-04-25T12:56:32;70.22;;;55.90;;
23310;SDS011;11828;51.508;18.118;2023-04-25T12:58:58;90.90;;;60.67;;
23310;SDS011;11828;51.508;18.118;2023-04-25T13:01:25;78.85;;;57.85;;
23310;SDS011;11828;51.508;18.118;2023-04-25T13:03:52;93.30;;;62.50;;
23310;SDS011;11828;51.508;18.118;2023-04-25T13:06:18;98.00;;;62.83;;
23310;SDS011;11828;51.508;18.118;2023-04-25T13:08:46;110.70;;;65.68;;
23310;SDS011;11828;51.508;18.118;2023-04-25T13:11:12;121.50;;;69.80;;
23310;SDS011;11828;51.508;18.118;2023-04-25T13:13:40;114.28;;;66.65;;
23310;SDS011;11828;51.508;18.118;2023-04-25T13:16:06;102.50;;;65.03;;
23310;SDS011;11828;51.508;18.118;2023-04-25T13:18:34;99.72;;;63.00;;
23310;SDS011;11828;51.508;18.118;2023-04-25T13:21:00;78.07;;;56.78;;
23310;SDS011;11828;51.508;18.118;2023-04-25T13:23:27;69.35;;;51.63;;
23310;SDS011;11828;51.508;18.118;2023-04-25T13:25:55;62.60;;;51.83;;
23310;SDS011;11828;51.508;18.118;2023-04-25T13:28:23;67.20;;;55.17;;
23310;SDS011;11828;51.508;18.118;2023-04-25T13:30:50;77.03;;;57.70;;
23310;SDS011;11828;51.508;18.118;2023-04-25T13:33:17;72.13;;;55.60;;
23310;SDS011;11828;51.508;18.118;2023-04-25T13:35:45;88.05;;;60.88;;
23310;SDS011;11828;51.508;18.118;2023-04-25T13:38:20;85.80;;;60.20;;
23310;SDS011;11828;51.508;18.118;2023-04-25T13:40:46;81.85;;;57.50;;
23310;SDS011;11828;51.508;18.118;2023-04-25T13:43:13;79.80;;;58.15;;
23310;SDS011;11828;51.508;18.118;2023-04-25T13:45:39;90.95;;;62.15;;
23310;SDS011;11828;51.508;18.118;2023-04-25T13:48:06;99.97;;;65.30;;
23310;SDS011;11828;51.508;18.118;2023-04-25T13:50:32;102.03;;;65.22;;
23310;SDS011;11828;51.508;18.118;2023-04-25T13:52:58;112.10;;;66.22;;
23310;SDS011;11828;51.508;18.118;2023-04-25T13:55:24;119.40;;;69.45;;
23310;SDS011;11828;51.508;18.118;2023-04-25T13:57:51;124.50;;;70.22;;
23310;SDS011;11828;51.508;18.118;2023-04-25T14:00:17;125.25;;;70.85;;
23310;SDS011;11828;51.508;18.118;2023-04-25T14:02:45;132.52;;;71.90;;
23310;SDS011;11828;51.508;18.118;2023-04-25T14:05:11;138.60;;;73.80;;
23310;SDS011;11828;51.508;18.118;2023-04-25T14:07:38;139.98;;;73.72;;
23310;SDS011;11828;51.508;18.118;2023-04-25T14:10:04;155.88;;;77.10;;
23310;SDS011;11828;51.508;18.118;2023-04-25T14:12:32;157.40;;;76.25;;
23310;SDS011;11828;51.508;18.118;2023-04-25T14:14:58;146.20;;;75.07;;